Time;durP1;ratioP1;P1;durP2;ratioP2;P2;SDS_P1;SDS_P2;PMS_P1;PMS_P2;Temp;Humidity;BMP_temperature;BMP_pressure;BME280_temperature;BME280_humidity;BME280_pressure;Samples;Min_cycle;Max_cycle;Signal;HPM_P1;HPM_P2
2024/02/23 00:01:46;;;;;;;1.30;0.60;;;10.40;99.90;;;;;;5029805;28;20486;-46
2024/02/23 00:04:16;;;;;;;1.50;0.60;;;10.40;99.90;;;;;;5018895;28;20714;-46
2024/02/23 00:06:44;;;;;;;2.90;0.60;;;10.40;99.90;;;;;;5028788;28;20430;-46
2024/02/23 00:09:12;;;;;;;1.20;0.50;;;10.40;99.90;;;;;;5030628;28;21001;-46
2024/02/23 00:11:44;;;;;;;1.30;0.60;;;10.40;99.90;;;;;;5030209;28;20435;-46
2024/02/23 00:14:16;;;;;;;1.67;0.90;;;10.40;99.90;;;;;;5026804;28;20476;-46
2024/02/23 00:16:46;;;;;;;1.50;0.60;;;10.40;99.90;;;;;;5028017;28;20545;-46
2024/02/23 00:19:17;;;;;;;2.07;0.40;;;10.40;99.90;;;;;;5024669;28;20443;-47
2024/02/23 00:21:49;;;;;;;1.10;0.50;;;10.40;99.90;;;;;;5027520;28;20530;-46
2024/02/23 00:24:20;;;;;;;1.50;0.60;;;10.40;99.90;;;;;;5031699;28;20528;-46
2024/02/23 00:26:51;;;;;;;1.87;0.60;;;10.40;99.90;;;;;;5027495;28;20486;-46
2024/02/23 00:29:23;;;;;;;1.40;0.90;;;10.40;99.90;;;;;;5032370;28;20459;-46
2024/02/23 00:31:51;;;;;;;1.50;0.60;;;10.40;99.90;;;;;;5025242;28;20450;-46
2024/02/23 00:34:22;;;;;;;1.10;0.50;;;10.40;99.90;;;;;;5022416;28;20555;-46
2024/02/23 00:36:53;;;;;;;1.20;0.70;;;10.40;99.90;;;;;;5031601;28;20449;-46
2024/02/23 00:39:21;;;;;;;2.00;0.70;;;10.40;99.90;;;;;;5023931;28;20452;-46
2024/02/23 00:41:49;;;;;;;1.20;0.50;;;10.40;99.90;;;;;;5031356;28;20439;-46
2024/02/23 00:44:18;;;;;;;1.20;0.43;;;10.40;99.90;;;;;;5020855;28;20558;-46
2024/02/23 00:46:48;;;;;;;1.50;0.70;;;10.40;99.90;;;;;;5025096;28;21001;-47
2024/02/23 00:49:17;;;;;;;1.53;0.53;;;10.40;99.90;;;;;;5023962;28;20975;-47
2024/02/23 00:51:47;;;;;;;2.07;1.10;;;10.40;99.90;;;;;;5031792;28;20859;-46
2024/02/23 00:54:15;;;;;;;1.23;0.70;;;10.40;99.90;;;;;;5030491;28;20487;-46
2024/02/23 00:56:45;;;;;;;1.10;0.50;;;10.40;99.90;;;;;;5019198;28;20442;-46
2024/02/23 00:59:20;;;;;;;1.90;0.40;;;10.30;99.90;;;;;;5023878;28;20470;-46
2024/02/23 01:01:51;;;;;;;1.00;0.40;;;10.40;99.90;;;;;;5024967;28;20439;-46
2024/02/23 01:04:21;;;;;;;1.30;0.60;;;10.40;99.90;;;;;;5027365;28;20471;-46
2024/02/23 01:06:50;;;;;;;1.10;0.40;;;10.40;99.90;;;;;;5024238;28;20439;-46
2024/02/23 01:09:20;;;;;;;1.30;0.60;;;10.30;99.90;;;;;;5029082;28;20993;-46
2024/02/23 01:11:50;;;;;;;2.67;0.70;;;10.40;99.90;;;;;;5009115;28;20452;-46
2024/02/23 01:14:18;;;;;;;1.00;0.47;;;10.40;99.90;;;;;;5025301;28;20458;-46
2024/02/23 01:16:46;;;;;;;1.67;0.40;;;10.40;99.90;;;;;;5021115;28;20933;-46
2024/02/23 01:19:18;;;;;;;1.67;0.50;;;10.40;99.90;;;;;;5025754;28;20998;-46
2024/02/23 01:21:46;;;;;;;1.63;0.50;;;10.40;99.90;;;;;;5007858;28;20475;-45
2024/02/23 01:24:17;;;;;;;1.83;0.60;;;10.40;99.90;;;;;;5031852;28;20836;-47
2024/02/23 01:26:45;;;;;;;1.97;0.73;;;10.40;99.90;;;;;;5027076;28;20425;-46
2024/02/23 01:29:13;;;;;;;2.23;0.60;;;10.30;99.90;;;;;;5018393;28;20471;-46
2024/02/23 01:31:42;;;;;;;1.07;0.60;;;10.30;99.90;;;;;;5032122;28;20517;-46
2024/02/23 01:34:10;;;;;;;4.33;0.70;;;10.30;99.90;;;;;;5026549;28;20472;-46
2024/02/23 01:36:41;;;;;;;1.17;0.60;;;10.30;99.90;;;;;;5031419;28;20432;-46
2024/02/23 01:39:12;;;;;;;1.87;0.47;;;10.30;99.90;;;;;;5030772;28;20808;-46
2024/02/23 01:41:42;;;;;;;1.53;0.50;;;10.30;99.90;;;;;;5023162;28;20447;-46
2024/02/23 01:44:12;;;;;;;1.13;0.50;;;10.30;99.90;;;;;;5024623;28;20464;-47
2024/02/23 01:46:40;;;;;;;1.47;0.47;;;10.30;99.90;;;;;;5028650;28;20444;-46
2024/02/23 01:49:10;;;;;;;1.93;0.70;;;10.30;99.90;;;;;;5020013;28;20448;-47
2024/02/23 01:51:42;;;;;;;2.00;0.50;;;10.30;99.90;;;;;;5021991;28;20578;-46
2024/02/23 01:54:12;;;;;;;1.00;0.40;;;10.30;99.90;;;;;;5026691;28;20515;-46
2024/02/23 01:56:42;;;;;;;1.07;0.50;;;10.30;99.90;;;;;;5020474;28;20533;-46
2024/02/23 01:59:13;;;;;;;1.30;0.53;;;10.30;99.90;;;;;;5021236;28;20436;-46
2024/02/23 02:01:44;;;;;;;1.00;0.50;;;10.30;99.90;;;;;;5031641;28;20484;-46
2024/02/23 02:04:12;;;;;;;1.20;0.50;;;10.30;99.90;;;;;;5020345;28;20463;-47
2024/02/23 02:06:44;;;;;;;1.87;0.50;;;10.30;99.90;;;;;;5030596;28;20491;-46
2024/02/23 02:09:12;;;;;;;1.00;0.40;;;10.30;99.90;;;;;;5028319;28;20938;-47
2024/02/23 02:11:47;;;;;;;1.50;0.60;;;10.30;99.90;;;;;;5024138;28;20463;-46
2024/02/23 02:14:16;;;;;;;1.20;0.60;;;10.30;99.90;;;;;;5029706;28;20471;-46
2024/02/23 02:16:47;;;;;;;1.23;0.50;;;10.30;99.90;;;;;;5030811;28;20438;-46
2024/02/23 02:19:16;;;;;;;1.40;0.40;;;10.20;99.90;;;;;;5016779;28;20969;-45
2024/02/23 02:21:48;;;;;;;1.17;0.40;;;10.30;99.90;;;;;;5024643;28;20524;-46
2024/02/23 02:24:17;;;;;;;1.50;0.67;;;10.30;99.90;;;;;;5029331;28;20869;-46
2024/02/23 02:26:50;;;;;;;1.20;0.60;;;10.30;99.90;;;;;;5018194;28;20523;-46
2024/02/23 02:29:19;;;;;;;1.00;0.40;;;10.30;99.90;;;;;;5030441;28;21114;-46
2024/02/23 02:31:48;;;;;;;1.40;0.40;;;10.30;99.90;;;;;;5026020;28;20472;-46
2024/02/23 02:34:17;;;;;;;1.50;0.67;;;10.20;99.90;;;;;;5024479;28;20472;-46
2024/02/23 02:36:48;;;;;;;2.20;0.50;;;10.30;99.90;;;;;;5023501;28;20514;-46
2024/02/23 02:39:16;;;;;;;1.40;0.50;;;10.20;99.90;;;;;;5028080;28;20836;-46
2024/02/23 02:41:46;;;;;;;2.30;0.50;;;10.20;99.90;;;;;;5029783;28;20437;-46
2024/02/23 02:44:16;;;;;;;1.10;0.40;;;10.20;99.90;;;;;;5021397;28;20467;-45
2024/02/23 02:46:46;;;;;;;1.30;0.60;;;10.20;99.90;;;;;;5030731;28;20445;-46
2024/02/23 02:49:16;;;;;;;1.13;0.57;;;10.20;99.90;;;;;;5024026;28;20466;-46
2024/02/23 02:51:47;;;;;;;1.03;0.57;;;10.20;99.90;;;;;;5028412;28;20525;-46
2024/02/23 02:54:18;;;;;;;1.77;0.53;;;10.20;99.90;;;;;;5027964;28;20486;-46
2024/02/23 02:56:50;;;;;;;1.50;0.57;;;10.20;99.90;;;;;;5034718;28;20442;-46
2024/02/23 02:59:20;;;;;;;1.97;0.57;;;10.20;99.90;;;;;;5032002;28;20477;-46
2024/02/23 03:01:49;;;;;;;1.20;0.50;;;10.20;99.90;;;;;;5021684;28;20504;-46
2024/02/23 03:04:17;;;;;;;1.80;0.60;;;10.20;99.90;;;;;;5030305;28;20470;-46
2024/02/23 03:06:48;;;;;;;2.03;0.80;;;10.20;99.90;;;;;;5030485;28;20945;-46
2024/02/23 03:09:16;;;;;;;1.77;0.63;;;10.20;99.90;;;;;;5029367;28;20489;-48
2024/02/23 03:11:46;;;;;;;2.20;0.73;;;10.20;99.90;;;;;;5031082;28;20463;-49
2024/02/23 03:14:18;;;;;;;1.87;0.50;;;10.20;99.90;;;;;;5029806;28;20870;-47
2024/02/23 03:16:47;;;;;;;1.70;0.50;;;10.20;99.90;;;;;;5030553;28;20521;-47
2024/02/23 03:19:18;;;;;;;2.30;0.70;;;10.20;99.90;;;;;;5024959;28;20501;-46
2024/02/23 03:21:48;;;;;;;2.93;0.70;;;10.20;99.90;;;;;;5031999;28;20958;-47
2024/02/23 03:24:17;;;;;;;1.67;0.40;;;10.20;99.90;;;;;;5024090;28;20479;-47
2024/02/23 03:26:45;;;;;;;1.90;0.60;;;10.20;99.90;;;;;;5033785;28;20458;-47
2024/02/23 03:29:15;;;;;;;1.73;0.50;;;10.20;99.90;;;;;;5034377;28;20456;-46
2024/02/23 03:31:46;;;;;;;3.10;0.60;;;10.10;99.90;;;;;;5015652;28;20491;-48
2024/02/23 03:34:16;;;;;;;1.47;0.60;;;10.20;99.90;;;;;;5025359;28;20892;-47
2024/02/23 03:36:46;;;;;;;1.10;0.50;;;10.10;99.90;;;;;;5029578;28;20437;-47
2024/02/23 03:39:17;;;;;;;1.63;0.50;;;10.10;99.90;;;;;;5030206;28;20439;-48
2024/02/23 03:41:46;;;;;;;1.67;0.60;;;10.10;99.90;;;;;;5032282;28;20468;-48
2024/02/23 03:44:16;;;;;;;1.17;0.50;;;10.10;99.90;;;;;;5069948;22;20491;-47
2024/02/23 03:46:45;;;;;;;2.33;0.53;;;10.10;99.90;;;;;;5013717;28;20435;-46
2024/02/23 03:49:14;;;;;;;2.57;0.70;;;10.10;99.90;;;;;;5009479;28;20453;-50
2024/02/23 03:51:42;;;;;;;3.43;0.50;;;10.10;99.90;;;;;;5019175;28;20549;-48
2024/02/23 03:54:12;;;;;;;1.20;0.53;;;10.10;99.90;;;;;;5016985;28;20458;-46
2024/02/23 03:56:43;;;;;;;1.97;0.60;;;10.10;99.90;;;;;;5016561;28;20509;-47
2024/02/23 03:59:12;;;;;;;1.47;0.70;;;10.10;99.90;;;;;;5020139;28;20435;-47
2024/02/23 04:01:41;;;;;;;1.40;0.50;;;10.10;99.90;;;;;;5012618;28;20467;-48
2024/02/23 04:04:10;;;;;;;1.43;0.57;;;10.10;99.90;;;;;;5009550;28;20487;-47
2024/02/23 04:06:41;;;;;;;1.30;0.50;;;10.10;99.90;;;;;;5023732;28;20552;-46
2024/02/23 04:09:12;;;;;;;2.00;0.30;;;10.10;99.90;;;;;;5028552;28;20521;-47
2024/02/23 04:11:43;;;;;;;1.47;0.70;;;10.10;99.90;;;;;;5030911;28;20848;-48
2024/02/23 04:14:12;;;;;;;3.50;0.60;;;10.10;99.90;;;;;;5027027;28;20472;-46
2024/02/23 04:16:42;;;;;;;1.70;0.50;;;10.10;99.90;;;;;;4995985;28;20450;-47
2024/02/23 04:19:12;;;;;;;3.53;0.53;;;10.10;99.90;;;;;;5002256;28;20443;-46
2024/02/23 04:21:40;;;;;;;1.50;0.40;;;10.10;99.90;;;;;;5000044;28;20446;-47
2024/02/23 04:24:10;;;;;;;1.10;0.43;;;10.10;99.90;;;;;;5005292;28;20453;-47
2024/02/23 04:26:38;;;;;;;1.40;0.57;;;10.10;99.90;;;;;;4995441;28;20466;-47
2024/02/23 04:29:08;;;;;;;3.37;0.67;;;10.10;99.90;;;;;;5000195;28;20442;-46
2024/02/23 04:31:37;;;;;;;1.13;0.50;;;10.10;99.90;;;;;;5000996;28;20467;-46
2024/02/23 04:34:06;;;;;;;2.40;0.77;;;10.00;99.90;;;;;;4994570;28;20848;-47
2024/02/23 04:36:35;;;;;;;1.20;0.50;;;10.00;99.90;;;;;;5001574;28;20470;-48
2024/02/23 04:39:04;;;;;;;1.10;0.53;;;10.00;99.90;;;;;;4998921;28;20456;-49
2024/02/23 04:41:32;;;;;;;4.10;0.60;;;10.00;99.90;;;;;;5003117;28;21002;-47
2024/02/23 04:44:01;;;;;;;1.00;0.40;;;10.00;99.90;;;;;;4996021;28;20471;-46
2024/02/23 04:46:32;;;;;;;1.77;0.50;;;10.00;99.90;;;;;;5004171;28;20550;-50
2024/02/23 04:49:02;;;;;;;4.97;0.70;;;10.00;99.90;;;;;;5000008;28;20450;-47
2024/02/23 04:51:32;;;;;;;2.20;1.03;;;10.00;99.90;;;;;;5002053;28;20575;-47
2024/02/23 04:54:00;;;;;;;1.63;0.60;;;10.00;99.90;;;;;;5000295;28;21027;-48
2024/02/23 04:56:31;;;;;;;1.87;0.63;;;10.00;99.90;;;;;;4998220;28;20491;-47
2024/02/23 04:59:00;;;;;;;1.27;0.40;;;10.00;99.90;;;;;;4999256;28;20492;-49
2024/02/23 05:01:36;;;;;;;2.47;0.60;;;10.00;99.90;;;;;;5004124;28;20478;-47
2024/02/23 05:04:06;;;;;;;1.93;0.60;;;10.00;99.90;;;;;;4979176;28;20475;-49
2024/02/23 05:06:37;;;;;;;2.33;0.60;;;10.00;99.90;;;;;;4993411;28;21011;-48
2024/02/23 05:09:09;;;;;;;2.07;0.70;;;10.00;99.90;;;;;;4998720;28;20952;-47
2024/02/23 05:11:37;;;;;;;1.77;0.73;;;10.00;99.90;;;;;;4990115;28;21228;-48
2024/02/23 05:14:06;;;;;;;2.03;0.57;;;10.00;99.90;;;;;;4994817;28;20546;-47
2024/02/23 05:16:38;;;;;;;1.57;0.67;;;10.00;99.90;;;;;;4993879;28;20879;-47
2024/02/23 05:19:07;;;;;;;1.40;0.60;;;10.00;99.90;;;;;;4993604;28;20454;-47
2024/02/23 05:21:36;;;;;;;1.30;0.50;;;10.00;99.90;;;;;;4994877;28;20475;-47
2024/02/23 05:24:06;;;;;;;1.07;0.40;;;10.00;99.90;;;;;;5001168;28;20457;-47
2024/02/23 05:26:34;;;;;;;2.80;0.50;;;10.00;99.90;;;;;;5000940;28;21000;-47
2024/02/23 05:29:03;;;;;;;5.27;0.77;;;10.00;99.90;;;;;;4995443;28;20514;-47
2024/02/23 05:31:47;;;;;;;1.93;0.70;;;9.90;99.90;;;;;;5000527;28;20482;-48
2024/02/23 05:34:16;;;;;;;2.00;0.60;;;10.00;99.90;;;;;;5006252;28;20495;-49
2024/02/23 05:36:46;;;;;;;1.43;0.57;;;9.90;99.90;;;;;;5005105;28;20443;-47
2024/02/23 05:39:17;;;;;;;1.57;0.40;;;9.90;99.90;;;;;;5001696;28;20443;-48
2024/02/23 05:41:47;;;;;;;1.40;0.50;;;9.90;99.90;;;;;;4998831;28;20459;-47
2024/02/23 05:44:17;;;;;;;1.40;0.50;;;9.90;99.90;;;;;;4977251;28;20570;-48
2024/02/23 05:46:48;;;;;;;1.40;0.47;;;9.90;99.90;;;;;;4996796;28;20452;-49
2024/02/23 05:49:16;;;;;;;2.20;0.70;;;9.90;99.90;;;;;;5001364;28;20449;-47
2024/02/23 05:51:47;;;;;;;1.20;0.40;;;9.90;99.90;;;;;;5007813;28;20464;-47
2024/02/23 05:54:17;;;;;;;3.37;0.70;;;9.90;99.90;;;;;;5010234;28;20463;-46
2024/02/23 05:56:46;;;;;;;1.80;0.67;;;9.90;99.90;;;;;;5005421;28;20421;-46
2024/02/23 05:59:17;;;;;;;1.13;0.50;;;9.90;99.90;;;;;;5008104;28;20423;-46
2024/02/23 06:01:48;;;;;;;1.50;0.43;;;9.90;99.90;;;;;;5006411;28;20477;-46
2024/02/23 06:04:16;;;;;;;3.83;0.70;;;9.90;99.90;;;;;;5006821;28;20470;-46
2024/02/23 06:06:45;;;;;;;2.93;0.70;;;9.90;99.90;;;;;;4998134;28;20463;-46
2024/02/23 06:09:15;;;;;;;2.60;0.70;;;9.90;99.90;;;;;;4991692;28;20541;-46
2024/02/23 06:11:47;;;;;;;1.30;0.53;;;9.90;99.90;;;;;;4998691;28;20566;-45
2024/02/23 06:14:15;;;;;;;1.20;0.50;;;9.90;99.90;;;;;;5003401;28;20451;-45
2024/02/23 06:16:45;;;;;;;2.80;0.70;;;9.90;99.90;;;;;;4993032;28;21031;-45
2024/02/23 06:19:17;;;;;;;2.03;0.70;;;9.90;99.90;;;;;;4996099;28;20516;-45
2024/02/23 06:21:56;;;;;;;1.57;0.70;;;9.90;99.90;;;;;;5002622;28;20460;-44
2024/02/23 06:24:26;;;;;;;1.37;0.70;;;9.80;99.90;;;;;;4994620;28;20496;-45
2024/02/23 06:26:57;;;;;;;1.30;0.60;;;9.80;99.90;;;;;;4998623;28;20455;-45
2024/02/23 06:29:27;;;;;;;1.70;0.60;;;9.90;99.90;;;;;;4993137;28;20813;-45
2024/02/23 06:31:57;;;;;;;2.43;0.43;;;9.90;99.90;;;;;;5000558;28;20473;-45
2024/02/23 06:34:27;;;;;;;1.20;0.60;;;9.90;99.90;;;;;;4995980;28;20473;-46
2024/02/23 06:36:55;;;;;;;3.17;0.80;;;9.90;99.90;;;;;;5007690;28;20830;-45
2024/02/23 06:39:23;;;;;;;0.90;0.40;;;9.90;99.90;;;;;;4993502;28;20439;-45
2024/02/23 06:41:53;;;;;;;1.30;0.50;;;9.90;99.90;;;;;;5000479;28;20443;-45
2024/02/23 06:44:21;;;;;;;1.47;0.70;;;9.90;99.90;;;;;;4996821;28;20809;-45
2024/02/23 06:46:49;;;;;;;2.20;0.60;;;9.90;99.90;;;;;;4997563;28;21010;-44
2024/02/23 06:49:18;;;;;;;1.90;0.70;;;9.90;99.90;;;;;;4993454;28;20458;-46
2024/02/23 06:51:48;;;;;;;1.57;0.67;;;9.80;99.90;;;;;;4993931;28;20555;-45
2024/02/23 06:54:17;;;;;;;1.90;0.63;;;9.80;99.90;;;;;;4994742;28;20494;-45
2024/02/23 06:56:46;;;;;;;1.83;0.40;;;9.80;99.90;;;;;;4994918;28;20458;-45
2024/02/23 06:59:15;;;;;;;1.20;0.60;;;9.80;99.90;;;;;;4998204;28;20454;-47
2024/02/23 07:01:50;;;;;;;2.03;0.57;;;9.80;99.90;;;;;;4982728;28;20465;-44
2024/02/23 07:04:19;;;;;;;2.13;0.60;;;9.80;99.90;;;;;;5005914;28;20460;-45
2024/02/23 07:06:49;;;;;;;1.50;0.70;;;9.80;99.90;;;;;;4994126;28;20447;-45
2024/02/23 07:09:18;;;;;;;1.53;0.70;;;9.80;99.90;;;;;;4993749;28;20559;-45
2024/02/23 07:11:51;;;;;;;1.43;0.70;;;9.80;99.90;;;;;;5010240;28;20527;-46
2024/02/23 07:14:22;;;;;;;1.50;0.73;;;9.80;99.90;;;;;;4999934;28;20480;-46
2024/02/23 07:16:56;;;;;;;1.50;0.57;;;9.80;99.90;;;;;;5005186;28;20429;-46
2024/02/23 07:19:54;;;;;;;2.37;0.93;;;9.80;99.90;;;;;;4995942;28;20519;-46
2024/02/23 07:22:50;;;;;;;1.60;0.70;;;9.80;99.90;;;;;;5006470;28;20429;-46
2024/02/23 07:25:23;;;;;;;4.60;0.60;;;9.80;99.90;;;;;;5008936;28;20557;-46
2024/02/23 07:28:19;;;;;;;1.33;0.63;;;9.80;99.90;;;;;;5002769;28;20996;-46
2024/02/23 07:30:49;;;;;;;1.20;0.50;;;9.80;99.90;;;;;;4996738;28;20461;-44
2024/02/23 07:33:19;;;;;;;1.67;0.53;;;9.70;99.90;;;;;;5008506;28;20470;-46
2024/02/23 07:35:51;;;;;;;1.20;0.50;;;9.80;99.90;;;;;;5003043;28;20453;-46
2024/02/23 07:38:23;;;;;;;2.10;0.63;;;9.70;99.90;;;;;;5010224;28;20440;-47
2024/02/23 07:40:53;;;;;;;2.57;0.67;;;9.70;99.90;;;;;;5005614;28;20487;-46
2024/02/23 07:43:26;;;;;;;1.10;0.50;;;9.70;99.90;;;;;;5012358;28;20835;-46
2024/02/23 07:45:55;;;;;;;2.37;1.30;;;9.70;99.90;;;;;;5008243;28;20483;-45
2024/02/23 07:48:25;;;;;;;5.43;1.77;;;9.70;99.90;;;;;;5008387;28;20522;-46
2024/02/23 07:50:55;;;;;;;2.40;1.10;;;9.60;99.90;;;;;;5005528;28;20464;-47
2024/02/23 07:53:34;;;;;;;3.87;1.33;;;9.50;99.90;;;;;;5010709;28;20826;-46
2024/02/23 07:56:12;;;;;;;2.63;0.97;;;9.50;99.90;;;;;;5005066;28;20471;-46
2024/02/23 07:58:53;;;;;;;2.60;0.70;;;9.50;99.90;;;;;;4990698;28;20455;-46
2024/02/23 08:01:27;;;;;;;2.53;0.87;;;9.50;99.90;;;;;;5005683;28;20540;-46
2024/02/23 08:03:58;;;;;;;2.50;0.67;;;9.60;99.90;;;;;;5005456;28;20544;-46
2024/02/23 08:06:29;;;;;;;3.37;0.80;;;9.60;99.90;;;;;;5008882;28;20749;-46
2024/02/23 08:08:59;;;;;;;3.27;0.93;;;9.60;99.90;;;;;;5018158;28;20463;-46
2024/02/23 08:11:37;;;;;;;2.63;0.80;;;9.60;99.90;;;;;;4992493;28;20467;-46
2024/02/23 08:14:10;;;;;;;4.17;1.60;;;9.60;99.90;;;;;;5006116;28;20477;-46
2024/02/23 08:16:45;;;;;;;2.43;0.77;;;9.60;99.90;;;;;;5010230;28;20468;-46
2024/02/23 08:19:17;;;;;;;2.47;0.90;;;9.60;99.90;;;;;;5001633;28;20962;-46
2024/02/23 08:21:54;;;;;;;3.83;0.83;;;9.60;99.90;;;;;;5024857;28;20565;-46
2024/02/23 08:24:56;;;;;;;1.70;0.60;;;9.60;99.90;;;;;;5011783;28;20828;-46
2024/02/23 08:27:59;;;;;;;3.93;0.93;;;9.60;99.90;;;;;;5025482;28;20610;-46
2024/02/23 08:31:05;;;;;;;2.87;1.00;;;9.60;99.90;;;;;;5010879;28;20467;-46
2024/02/23 08:34:12;;;;;;;2.63;0.93;;;9.60;99.90;;;;;;5026821;28;20480;-46
2024/02/23 08:37:03;;;;;;;1.97;0.70;;;9.60;99.90;;;;;;5019984;28;20543;-46
2024/02/23 08:39:39;;;;;;;1.70;0.67;;;9.60;99.90;;;;;;5013834;28;20448;-46
2024/02/23 08:42:10;;;;;;;2.43;0.77;;;9.60;99.90;;;;;;5028122;28;20532;-46
2024/02/23 08:44:58;;;;;;;2.40;0.83;;;9.60;99.90;;;;;;5031783;28;20459;-47
2024/02/23 08:47:31;;;;;;;1.53;0.70;;;9.60;99.90;;;;;;5028710;28;20490;-47
2024/02/23 08:50:08;;;;;;;4.40;1.33;;;9.60;99.90;;;;;;5029347;28;20474;-48
2024/02/23 08:53:07;;;;;;;2.33;0.70;;;9.60;99.90;;;;;;5006746;28;20442;-47
2024/02/23 08:55:53;;;;;;;3.10;1.20;;;9.60;99.90;;;;;;5022404;28;20459;-47
2024/02/23 08:58:32;;;;;;;2.43;0.77;;;9.60;99.90;;;;;;5032672;28;20802;-48
2024/02/23 09:01:13;;;;;;;1.43;0.60;;;9.60;99.90;;;;;;5024584;28;21057;-48
2024/02/23 09:03:53;;;;;;;2.50;1.03;;;9.60;99.90;;;;;;5030800;28;20456;-48
2024/02/23 09:06:45;;;;;;;1.70;0.60;;;9.60;99.90;;;;;;5028157;28;20464;-48
2024/02/23 09:09:38;;;;;;;1.30;0.60;;;9.60;99.90;;;;;;5004115;28;20470;-47
2024/02/23 09:12:32;;;;;;;1.40;0.60;;;9.60;99.90;;;;;;5090736;23;20478;-46
2024/02/23 09:15:26;;;;;;;2.03;0.97;;;9.60;99.90;;;;;;5026147;23;20471;-46
2024/02/23 09:17:55;;;;;;;1.83;0.60;;;9.60;99.90;;;;;;5016424;28;20953;-50
2024/02/23 09:20:26;;;;;;;1.70;0.60;;;9.60;99.90;;;;;;5008048;28;20876;-46
2024/02/23 09:23:17;;;;;;;3.30;0.70;;;9.60;99.90;;;;;;5023213;28;20615;-47
2024/02/23 09:26:09;;;;;;;2.57;0.80;;;9.60;99.90;;;;;;5011265;28;20483;-48
2024/02/23 09:29:19;;;;;;;1.50;0.70;;;9.60;99.90;;;;;;5028196;28;20436;-47
2024/02/23 09:32:00;;;;;;;3.57;0.70;;;9.60;99.90;;;;;;5026707;28;21017;-46
2024/02/23 09:34:37;;;;;;;2.63;1.00;;;9.60;99.90;;;;;;5012132;28;20535;-47
2024/02/23 09:37:32;;;;;;;1.83;0.63;;;9.60;99.90;;;;;;5026129;28;20974;-47
2024/02/23 09:40:25;;;;;;;1.40;0.70;;;9.60;99.90;;;;;;5010729;28;20497;-48
2024/02/23 09:42:58;;;;;;;2.27;0.97;;;9.60;99.90;;;;;;5025861;28;20440;-47
2024/02/23 09:45:34;;;;;;;1.93;0.97;;;9.50;99.90;;;;;;5007926;28;20479;-48
2024/02/23 09:48:23;;;;;;;2.20;1.03;;;9.60;99.90;;;;;;5006294;28;20432;-47
2024/02/23 09:51:05;;;;;;;4.00;0.80;;;9.60;99.90;;;;;;5018730;28;20465;-46
2024/02/23 09:53:38;;;;;;;1.77;0.70;;;9.60;99.90;;;;;;5031382;28;20797;-46
2024/02/23 09:56:40;;;;;;;1.20;0.63;;;9.60;99.90;;;;;;5024029;28;20448;-46
2024/02/23 09:59:18;;;;;;;2.60;0.80;;;9.60;99.90;;;;;;5026903;28;20440;-46
2024/02/23 10:05:38;;;;;;;2.00;0.97;;;9.60;99.90;;;;;;5008334;28;20564;-46
2024/02/23 10:08:12;;;;;;;1.73;0.70;;;9.60;99.90;;;;;;5030097;28;20503;-45
2024/02/23 10:10:43;;;;;;;3.40;0.70;;;9.50;99.90;;;;;;5021614;28;20458;-46
2024/02/23 10:13:24;;;;;;;2.07;0.80;;;9.60;99.90;;;;;;5028445;28;20858;-45
2024/02/23 10:16:10;;;;;;;2.23;0.67;;;9.50;99.90;;;;;;5025175;28;20845;-49
2024/02/23 10:18:50;;;;;;;2.00;0.63;;;9.60;99.90;;;;;;5025984;28;20505;-48
2024/02/23 10:21:21;;;;;;;1.73;0.60;;;9.60;99.90;;;;;;5030607;28;20984;-47
2024/02/23 10:23:53;;;;;;;1.23;0.60;;;9.50;99.90;;;;;;5024181;28;20459;-47
2024/02/23 10:26:39;;;;;;;2.40;0.63;;;9.60;99.90;;;;;;5027523;28;20841;-47
2024/02/23 10:29:18;;;;;;;2.70;0.73;;;9.60;99.90;;;;;;5027758;28;20431;-47
2024/02/23 10:31:53;;;;;;;1.73;0.60;;;9.60;99.90;;;;;;5029131;28;20515;-46
2024/02/23 10:34:28;;;;;;;4.17;0.90;;;9.50;99.90;;;;;;5020963;28;20465;-47
2024/02/23 10:36:59;;;;;;;1.53;0.60;;;9.60;99.90;;;;;;5026692;28;20448;-48
2024/02/23 10:39:39;;;;;;;1.40;0.60;;;9.60;99.90;;;;;;5025556;28;20423;-47
2024/02/23 10:42:13;;;;;;;2.13;0.87;;;9.60;99.90;;;;;;5028991;28;20798;-49
2024/02/23 10:44:43;;;;;;;2.43;0.60;;;9.60;99.90;;;;;;5028725;28;20536;-47
2024/02/23 10:47:13;;;;;;;1.30;0.50;;;9.60;99.90;;;;;;5025392;28;20441;-46
2024/02/23 10:49:47;;;;;;;1.30;0.60;;;9.60;99.90;;;;;;5027747;28;20460;-46
2024/02/23 10:52:19;;;;;;;3.83;0.70;;;9.60;99.90;;;;;;5030856;28;20510;-47
2024/02/23 10:54:57;;;;;;;3.13;0.70;;;9.60;99.90;;;;;;5023226;28;20452;-45
2024/02/23 10:57:27;;;;;;;1.80;0.80;;;9.50;99.90;;;;;;5027312;28;20539;-46
2024/02/23 10:59:56;;;;;;;1.97;0.70;;;9.50;99.90;;;;;;5033088;28;20590;-48
2024/02/23 11:02:31;;;;;;;2.10;0.63;;;9.50;99.90;;;;;;5028003;28;20436;-46
2024/02/23 11:05:05;;;;;;;1.70;0.63;;;9.50;99.90;;;;;;5027125;28;20475;-47
2024/02/23 11:07:41;;;;;;;1.40;0.63;;;9.50;99.90;;;;;;5028683;28;20440;-46
2024/02/23 11:10:16;;;;;;;2.30;0.60;;;9.50;99.90;;;;;;5026716;28;20471;-46
2024/02/23 11:12:47;;;;;;;1.73;0.63;;;9.50;99.90;;;;;;5030069;28;20448;-47
2024/02/23 11:15:28;;;;;;;1.90;0.63;;;9.50;99.90;;;;;;5029654;28;20918;-45
2024/02/23 11:17:56;;;;;;;3.23;0.90;;;9.50;99.90;;;;;;5032024;28;20431;-50
2024/02/23 11:20:37;;;;;;;1.27;0.60;;;9.50;99.90;;;;;;5032505;28;20482;-47
2024/02/23 11:23:16;;;;;;;1.33;0.50;;;9.50;99.90;;;;;;5030314;28;20439;-48
2024/02/23 11:26:05;;;;;;;3.90;0.97;;;9.50;99.90;;;;;;5029389;28;20459;-45
2024/02/23 11:28:33;;;;;;;2.90;0.97;;;9.50;99.90;;;;;;5019483;28;20443;-47
2024/02/23 11:31:11;;;;;;;2.27;0.73;;;9.50;99.90;;;;;;5025776;28;20537;-47
2024/02/23 11:33:50;;;;;;;6.50;0.83;;;9.50;99.90;;;;;;5026873;28;20459;-47
2024/02/23 11:36:31;;;;;;;1.40;0.70;;;9.50;99.90;;;;;;5031077;28;20473;-47
2024/02/23 11:39:03;;;;;;;2.30;0.73;;;9.50;99.90;;;;;;5034988;28;20507;-46
2024/02/23 11:41:34;;;;;;;1.87;0.70;;;9.50;99.90;;;;;;5024170;28;20499;-48
2024/02/23 11:44:03;;;;;;;1.77;0.70;;;9.50;99.90;;;;;;5027574;28;20515;-48
2024/02/23 11:46:32;;;;;;;3.53;0.73;;;9.40;99.90;;;;;;5027811;28;20548;-50
2024/02/23 11:49:00;;;;;;;1.57;0.83;;;9.50;99.90;;;;;;5022681;28;20444;-46
2024/02/23 11:51:30;;;;;;;2.03;0.60;;;9.40;99.90;;;;;;5030084;28;20457;-46
2024/02/23 11:54:05;;;;;;;1.73;0.70;;;9.40;99.90;;;;;;5033389;28;20451;-47
2024/02/23 11:56:34;;;;;;;3.37;0.87;;;9.40;99.90;;;;;;5027363;28;21091;-47
2024/02/23 11:59:03;;;;;;;2.10;0.70;;;9.40;99.90;;;;;;5033543;28;20428;-47
2024/02/23 12:01:32;;;;;;;1.57;0.50;;;9.40;99.90;;;;;;5027927;28;20640;-46
2024/02/23 12:04:03;;;;;;;2.83;0.63;;;9.40;99.90;;;;;;5030797;28;20465;-45
2024/02/23 12:06:35;;;;;;;2.40;0.70;;;9.40;99.90;;;;;;5026876;28;20498;-46
2024/02/23 12:09:05;;;;;;;1.33;0.60;;;9.40;99.90;;;;;;5019302;28;20452;-48
2024/02/23 12:11:34;;;;;;;2.13;0.80;;;9.40;99.90;;;;;;5033041;28;20554;-46
2024/02/23 12:14:07;;;;;;;1.73;0.63;;;9.40;99.90;;;;;;5029053;28;20547;-44
2024/02/23 12:16:36;;;;;;;1.43;0.63;;;9.40;99.90;;;;;;5029856;28;20514;-45
2024/02/23 12:19:09;;;;;;;2.20;0.80;;;9.40;99.90;;;;;;5023122;28;20456;-45
2024/02/23 12:21:41;;;;;;;1.60;0.53;;;9.40;99.90;;;;;;5029542;28;20543;-46
2024/02/23 12:24:10;;;;;;;2.00;0.87;;;9.40;99.90;;;;;;5032078;28;20456;-47
2024/02/23 12:26:40;;;;;;;2.70;0.60;;;9.40;99.90;;;;;;5026036;28;20465;-45
2024/02/23 12:29:11;;;;;;;3.27;1.00;;;9.40;99.90;;;;;;5015135;28;20429;-44
2024/02/23 12:31:43;;;;;;;1.87;0.83;;;9.40;99.90;;;;;;5030764;28;20834;-48
2024/02/23 12:34:12;;;;;;;1.93;0.70;;;9.40;99.90;;;;;;5027186;28;20514;-45
2024/02/23 12:36:44;;;;;;;1.57;0.80;;;9.40;99.90;;;;;;5028790;28;20569;-46
2024/02/23 12:39:12;;;;;;;2.47;0.87;;;9.40;99.90;;;;;;5011777;28;20486;-44
2024/02/23 12:41:42;;;;;;;4.60;0.97;;;9.40;99.90;;;;;;5030530;28;20475;-45
2024/02/23 12:44:11;;;;;;;2.00;0.80;;;9.40;99.90;;;;;;5029070;28;20432;-47
2024/02/23 12:46:42;;;;;;;3.83;1.10;;;9.40;99.90;;;;;;5029750;28;20220;-44
2024/02/23 12:49:10;;;;;;;2.23;0.90;;;9.40;99.90;;;;;;5030894;28;20439;-47
2024/02/23 12:51:41;;;;;;;1.17;0.50;;;9.40;99.90;;;;;;5026789;28;20453;-46
2024/02/23 12:54:12;;;;;;;2.63;1.40;;;9.40;99.90;;;;;;5021927;28;20476;-45
2024/02/23 12:56:40;;;;;;;2.00;0.70;;;9.40;99.90;;;;;;5000886;28;20491;-46
2024/02/23 12:59:11;;;;;;;3.80;1.33;;;9.40;99.90;;;;;;5022478;28;20445;-44
2024/02/23 13:01:42;;;;;;;4.43;1.03;;;9.40;99.90;;;;;;5028539;28;20546;-46
2024/02/23 13:04:16;;;;;;;3.23;0.60;;;9.40;99.90;;;;;;5005896;28;20472;-47
2024/02/23 13:06:46;;;;;;;2.03;0.57;;;9.40;99.90;;;;;;5020781;28;20491;-45
2024/02/23 13:09:17;;;;;;;1.77;0.67;;;9.40;99.90;;;;;;5003719;28;20436;-46
2024/02/23 13:11:48;;;;;;;4.87;0.70;;;9.40;99.90;;;;;;5021114;28;20463;-46
2024/02/23 13:14:21;;;;;;;3.37;0.87;;;9.40;99.90;;;;;;5025171;28;20568;-46
2024/02/23 13:16:55;;;;;;;2.00;0.70;;;9.40;99.90;;;;;;5025396;28;20997;-46
2024/02/23 13:19:29;;;;;;;1.67;0.67;;;9.50;99.90;;;;;;5020695;28;20437;-46
2024/02/23 13:27:38;;;;;;;2.20;1.37;;;9.50;99.90;;;;;;5710136;22;20622;-47
2024/02/23 13:30:11;;;;;;;1.47;0.70;;;9.50;99.90;;;;;;5526912;22;20455;-46
2024/02/23 13:32:45;;;;;;;3.27;0.87;;;9.50;99.90;;;;;;5042702;28;20444;-45